Zia Pueblo, New Mexico
Current Conditions -  °F | °C
As of 12:49 PM on Friday 28 Nov 2014 (Local Time) from KAEG Reporting Station
Few Clouds Few Clouds  
Wind Chill: 55°   Ceiling: Unl
Heat Index: 55°   Visibility: 10mi
Dew Point: 19°   Wind: 7mph
Humidity: 25%   Direction: NA
Pressure: 30.19"   Gusts: NA
Location:  35.5626°N, 106.824°W
Report Text: KAEG 281949Z VRB06KT 10SM FEW150 13/M07 A3019
Loading
Personal Weather Stations






























Interactive Weather Map New forecast layout! Learn more

10-Day Weather Forecast

Advertisements
Track Severe Weather on mobile